Time;durP1;ratioP1;P1;durP2;ratioP2;P2;SDS_P1;SDS_P2;PMS_P1;PMS_P2;Temp;Humidity;BMP_temperature;BMP_pressure;BME280_temperature;BME280_humidity;BME280_pressure;Samples;Min_cycle;Max_cycle;Signal;HPM_P1;HPM_P2
2023/05/11 00:02:24;;;;;;;10.55;6.68;;;;;;;;;;5099558;28;20032;-76
2023/05/11 00:04:50;;;;;;;8.85;6.30;;;;;;;;;;5099166;28;20523;-76
2023/05/11 00:07:16;;;;;;;11.85;7.47;;;;;;;;;;5099123;28;20089;-76
2023/05/11 00:09:42;;;;;;;9.35;6.72;;;;;;;;;;5098995;28;20470;-76
2023/05/11 00:12:08;;;;;;;10.05;7.00;;;;;;;;;;5098943;28;20028;-76
2023/05/11 00:14:34;;;;;;;10.35;6.72;;;;;;;;;;5099342;28;20111;-76
2023/05/11 00:17:00;;;;;;;10.45;7.03;;;;;;;;;;5095785;28;20024;-76
2023/05/11 00:19:26;;;;;;;14.50;8.50;;;;;;;;;;5095650;28;20028;-76
2023/05/11 00:21:52;;;;;;;11.77;7.68;;;;;;;;;;5095852;28;20724;-76
2023/05/11 00:24:18;;;;;;;15.05;7.75;;;;;;;;;;5095601;28;20107;-75
2023/05/11 00:26:44;;;;;;;13.32;8.05;;;;;;;;;;5095660;28;20024;-76
2023/05/11 00:29:10;;;;;;;12.98;8.63;;;;;;;;;;5095627;28;20103;-76
2023/05/11 00:31:36;;;;;;;13.68;7.90;;;;;;;;;;5095661;28;20028;-76
2023/05/11 00:34:06;;;;;;;13.07;8.55;;;;;;;;;;5095746;28;20085;-76
2023/05/11 00:36:32;;;;;;;14.05;7.78;;;;;;;;;;5096077;28;20085;-76
2023/05/11 00:38:58;;;;;;;12.55;7.78;;;;;;;;;;5095406;28;20016;-76
2023/05/11 00:41:24;;;;;;;15.68;8.15;;;;;;;;;;5095626;28;20398;-76
2023/05/11 00:43:50;;;;;;;15.18;7.68;;;;;;;;;;5095569;28;20459;-76
2023/05/11 00:46:16;;;;;;;16.40;7.43;;;;;;;;;;5076805;28;20450;-76
2023/05/11 00:48:43;;;;;;;29.23;8.52;;;;;;;;;;5095369;28;20051;-76
2023/05/11 00:51:09;;;;;;;15.70;8.10;;;;;;;;;;5095497;28;20043;-76
2023/05/11 00:53:36;;;;;;;20.83;8.52;;;;;;;;;;5094998;28;20048;-76
2023/05/11 00:56:03;;;;;;;17.35;7.97;;;;;;;;;;5095052;28;20474;-76
2023/05/11 00:58:30;;;;;;;15.80;7.80;;;;;;;;;;5076868;28;20455;-76
2023/05/11 01:00:56;;;;;;;13.50;7.20;;;;;;;;;;5095190;28;20031;-76
2023/05/11 01:03:22;;;;;;;14.48;8.32;;;;;;;;;;5095051;28;20115;-76
2023/05/11 01:06:05;;;;;;;19.83;8.60;;;;;;;;;;5095174;28;20070;-76
2023/05/11 01:08:37;;;;;;;15.50;7.85;;;;;;;;;;5083774;28;20131;-76
2023/05/11 01:11:07;;;;;;;18.77;8.45;;;;;;;;;;5074538;28;20024;-76
2023/05/11 01:13:37;;;;;;;20.33;7.70;;;;;;;;;;5074458;28;20028;-76
2023/05/11 01:16:09;;;;;;;24.43;8.40;;;;;;;;;;5074421;28;20032;-76
2023/05/11 01:18:42;;;;;;;20.52;8.50;;;;;;;;;;5075312;28;20079;-76
2023/05/11 01:21:09;;;;;;;13.88;8.13;;;;;;;;;;5074328;28;20021;-76
2023/05/11 01:23:54;;;;;;;14.65;7.93;;;;;;;;;;5074466;28;20063;-76
2023/05/11 01:26:26;;;;;;;14.18;8.90;;;;;;;;;;5074343;28;20029;-76
2023/05/11 01:29:10;;;;;;;14.68;7.93;;;;;;;;;;5085325;28;20028;-76
2023/05/11 01:31:38;;;;;;;15.57;8.25;;;;;;;;;;5076134;28;20024;-76
2023/05/11 01:34:05;;;;;;;17.90;9.38;;;;;;;;;;5094446;28;20024;-76
2023/05/11 01:36:38;;;;;;;15.25;9.13;;;;;;;;;;5094699;28;20029;-76
2023/05/11 01:39:07;;;;;;;15.55;8.85;;;;;;;;;;5094285;28;20028;-76
2023/05/11 01:41:33;;;;;;;15.43;8.90;;;;;;;;;;5094082;28;20028;-76
2023/05/11 01:44:02;;;;;;;16.27;9.20;;;;;;;;;;5094253;28;20024;-76
2023/05/11 01:46:31;;;;;;;15.18;8.18;;;;;;;;;;5094254;28;20024;-76
2023/05/11 01:48:58;;;;;;;14.73;8.40;;;;;;;;;;5094033;28;20028;-76
2023/05/11 01:51:26;;;;;;;28.33;10.05;;;;;;;;;;5093978;28;20449;-76
2023/05/11 01:53:53;;;;;;;28.08;10.52;;;;;;;;;;5093897;28;20035;-75
2023/05/11 01:56:22;;;;;;;14.18;8.38;;;;;;;;;;5093801;28;20405;-76
2023/05/11 01:58:50;;;;;;;18.25;8.95;;;;;;;;;;5093777;28;20036;-76
2023/05/11 02:01:17;;;;;;;13.13;8.20;;;;;;;;;;5094168;28;20685;-76
2023/05/11 02:03:43;;;;;;;15.65;9.05;;;;;;;;;;5093882;28;20016;-76
2023/05/11 02:06:11;;;;;;;16.02;7.97;;;;;;;;;;5093773;28;20020;-76
2023/05/11 02:08:38;;;;;;;16.40;8.82;;;;;;;;;;5092327;28;20048;-76
2023/05/11 02:11:05;;;;;;;16.95;8.85;;;;;;;;;;5093588;28;20054;-76
2023/05/11 02:13:32;;;;;;;20.35;9.93;;;;;;;;;;5093708;28;20082;-76
2023/05/11 02:15:59;;;;;;;16.40;9.43;;;;;;;;;;5093563;28;20028;-75
2023/05/11 02:18:26;;;;;;;18.25;9.43;;;;;;;;;;5093449;28;20073;-76
2023/05/11 02:20:52;;;;;;;18.38;9.90;;;;;;;;;;5093463;28;20435;-76
2023/05/11 02:23:19;;;;;;;20.15;10.15;;;;;;;;;;5093284;28;20032;-76
2023/05/11 02:25:46;;;;;;;19.50;9.95;;;;;;;;;;5093394;28;20065;-76
2023/05/11 02:28:12;;;;;;;18.25;10.05;;;;;;;;;;5093596;28;20024;-76
2023/05/11 02:30:44;;;;;;;19.27;10.75;;;;;;;;;;5093282;28;20020;-76
2023/05/11 02:33:14;;;;;;;18.42;9.60;;;;;;;;;;5093490;28;20028;-76
2023/05/11 02:35:41;;;;;;;20.95;10.30;;;;;;;;;;5093614;28;20036;-76
2023/05/11 02:38:08;;;;;;;20.95;10.85;;;;;;;;;;5093268;28;20028;-76
2023/05/11 02:40:41;;;;;;;20.20;10.82;;;;;;;;;;5092885;28;20073;-76
2023/05/11 02:43:11;;;;;;;22.10;10.93;;;;;;;;;;5093605;28;20430;-76
2023/05/11 02:45:38;;;;;;;19.40;10.48;;;;;;;;;;5093239;28;20028;-76
2023/05/11 02:48:08;;;;;;;17.35;8.93;;;;;;;;;;5092797;28;20080;-76
2023/05/11 02:50:37;;;;;;;20.38;11.27;;;;;;;;;;5092867;28;20028;-76
2023/05/11 02:53:06;;;;;;;18.80;9.82;;;;;;;;;;5093218;28;20028;-76
2023/05/11 02:55:32;;;;;;;16.20;10.20;;;;;;;;;;5092871;28;20077;-76
2023/05/11 02:57:58;;;;;;;17.48;10.30;;;;;;;;;;5093147;28;20032;-76
2023/05/11 03:00:25;;;;;;;19.80;10.23;;;;;;;;;;5074888;28;20035;-76
2023/05/11 03:02:51;;;;;;;17.98;9.13;;;;;;;;;;5092797;28;20063;-76
2023/05/11 03:05:17;;;;;;;16.35;9.30;;;;;;;;;;5092806;28;20047;-76
2023/05/11 03:07:43;;;;;;;17.92;9.82;;;;;;;;;;5091429;28;20048;-76
2023/05/11 03:10:09;;;;;;;17.23;9.63;;;;;;;;;;5092804;28;20034;-76
2023/05/11 03:12:36;;;;;;;19.27;10.50;;;;;;;;;;5092770;28;20028;-76
2023/05/11 03:15:02;;;;;;;19.77;10.30;;;;;;;;;;5092859;28;20055;-76
2023/05/11 03:17:35;;;;;;;18.63;10.55;;;;;;;;;;5092773;28;20697;-76
2023/05/11 03:20:03;;;;;;;17.60;10.18;;;;;;;;;;5092710;28;20024;-76
2023/05/11 03:22:30;;;;;;;20.05;10.85;;;;;;;;;;5092509;28;20030;-76
2023/05/11 03:24:56;;;;;;;19.23;10.40;;;;;;;;;;5092666;28;20385;-76
2023/05/11 03:27:23;;;;;;;18.90;10.32;;;;;;;;;;5093125;28;20032;-76
2023/05/11 03:29:50;;;;;;;20.48;11.05;;;;;;;;;;5092732;28;20024;-76
2023/05/11 03:32:16;;;;;;;19.73;10.70;;;;;;;;;;5092671;28;20035;-76
2023/05/11 03:34:42;;;;;;;20.10;10.68;;;;;;;;;;5093043;28;20034;-76
2023/05/11 03:37:10;;;;;;;17.17;9.85;;;;;;;;;;5092562;28;20031;-76
2023/05/11 03:39:36;;;;;;;18.08;10.00;;;;;;;;;;5092690;28;20020;-76
2023/05/11 03:42:03;;;;;;;16.15;9.07;;;;;;;;;;5092586;28;20024;-76
2023/05/11 03:44:31;;;;;;;19.42;10.10;;;;;;;;;;5092557;28;20032;-76
2023/05/11 03:46:57;;;;;;;17.40;9.90;;;;;;;;;;5092537;28;20093;-76
2023/05/11 03:49:23;;;;;;;23.35;10.73;;;;;;;;;;5092472;28;20091;-76
2023/05/11 03:51:50;;;;;;;19.90;10.93;;;;;;;;;;5093973;28;20024;-76
2023/05/11 03:54:16;;;;;;;19.45;11.13;;;;;;;;;;5096100;28;20028;-76
2023/05/11 03:56:42;;;;;;;19.13;10.18;;;;;;;;;;5096098;28;20375;-76
2023/05/11 03:59:08;;;;;;;24.13;10.98;;;;;;;;;;5096151;28;20025;-76
2023/05/11 04:01:34;;;;;;;21.42;10.63;;;;;;;;;;5096137;28;20017;-76
2023/05/11 04:04:01;;;;;;;16.33;9.45;;;;;;;;;;5096054;28;20016;-76
2023/05/11 04:06:27;;;;;;;18.50;9.82;;;;;;;;;;5096077;28;20028;-76
2023/05/11 04:08:53;;;;;;;17.48;9.52;;;;;;;;;;5094473;28;20439;-76
2023/05/11 04:11:20;;;;;;;21.98;9.77;;;;;;;;;;5096081;28;20059;-76
2023/05/11 04:13:46;;;;;;;20.48;10.02;;;;;;;;;;5096212;28;20446;-76
2023/05/11 04:16:12;;;;;;;17.73;9.38;;;;;;;;;;5095819;28;20024;-76
2023/05/11 04:18:38;;;;;;;18.77;10.27;;;;;;;;;;5095335;28;20032;-76
2023/05/11 04:21:05;;;;;;;16.13;9.48;;;;;;;;;;5095351;28;20030;-76
2023/05/11 04:23:31;;;;;;;20.00;10.45;;;;;;;;;;5096124;28;20059;-76
2023/05/11 04:25:57;;;;;;;21.00;10.60;;;;;;;;;;5095688;28;20016;-76
2023/05/11 04:28:26;;;;;;;24.52;10.82;;;;;;;;;;5095420;28;20044;-76
2023/05/11 04:30:56;;;;;;;24.73;11.03;;;;;;;;;;5095685;28;20024;-76
2023/05/11 04:33:22;;;;;;;21.38;11.02;;;;;;;;;;5095438;28;20031;-76
2023/05/11 04:35:54;;;;;;;27.80;10.18;;;;;;;;;;5095476;28;20020;-76
2023/05/11 04:38:21;;;;;;;39.20;12.48;;;;;;;;;;5095162;28;20016;-76
2023/05/11 04:40:49;;;;;;;32.78;9.40;;;;;;;;;;5095189;28;20024;-76
2023/05/11 04:43:15;;;;;;;27.52;9.52;;;;;;;;;;5095470;28;20336;-75
2023/05/11 04:45:52;;;;;;;17.23;8.98;;;;;;;;;;5095258;28;20099;-76
2023/05/11 04:48:19;;;;;;;19.83;9.20;;;;;;;;;;5095255;28;20061;-76
2023/05/11 04:50:45;;;;;;;20.48;9.68;;;;;;;;;;5095190;28;20036;-76
2023/05/11 04:53:11;;;;;;;25.17;9.73;;;;;;;;;;5094885;28;20043;-76
2023/05/11 04:55:37;;;;;;;21.33;9.27;;;;;;;;;;5094763;28;20612;-76
2023/05/11 04:58:03;;;;;;;21.65;9.25;;;;;;;;;;5095017;28;20021;-76
2023/05/11 05:00:29;;;;;;;29.77;9.77;;;;;;;;;;5094794;28;20024;-76
2023/05/11 05:02:55;;;;;;;22.90;8.85;;;;;;;;;;5094435;28;20032;-76
2023/05/11 05:05:21;;;;;;;24.92;8.57;;;;;;;;;;5094790;28;20028;-76
2023/05/11 05:07:47;;;;;;;21.00;7.45;;;;;;;;;;5093729;28;20046;-76
2023/05/11 05:10:13;;;;;;;26.20;8.40;;;;;;;;;;5094574;28;20024;-76
2023/05/11 05:12:39;;;;;;;22.77;8.45;;;;;;;;;;5094456;28;20119;-76
2023/05/11 05:15:06;;;;;;;17.92;8.23;;;;;;;;;;5094668;28;20493;-75
2023/05/11 05:17:32;;;;;;;22.58;8.20;;;;;;;;;;5094531;28;20016;-76
2023/05/11 05:19:58;;;;;;;14.82;7.65;;;;;;;;;;5094487;28;20505;-76
2023/05/11 05:22:24;;;;;;;19.60;8.23;;;;;;;;;;5094662;28;20024;-76
2023/05/11 05:24:50;;;;;;;28.15;8.88;;;;;;;;;;5094670;28;20025;-76
2023/05/11 05:27:16;;;;;;;26.23;8.10;;;;;;;;;;5094724;28;20022;-76
2023/05/11 05:29:42;;;;;;;23.77;7.22;;;;;;;;;;5094406;28;20021;-76
2023/05/11 05:32:08;;;;;;;19.63;7.88;;;;;;;;;;5094822;28;20042;-76
2023/05/11 05:34:34;;;;;;;22.35;7.47;;;;;;;;;;5094511;28;20032;-76
2023/05/11 05:37:00;;;;;;;20.15;6.63;;;;;;;;;;5094323;28;20031;-76
2023/05/11 05:39:26;;;;;;;20.60;7.57;;;;;;;;;;5094315;28;20028;-76
2023/05/11 05:41:52;;;;;;;21.15;7.25;;;;;;;;;;5094198;28;20477;-76
2023/05/11 05:44:18;;;;;;;20.02;6.45;;;;;;;;;;5094139;28;20028;-76
2023/05/11 05:46:44;;;;;;;15.55;6.35;;;;;;;;;;5093861;28;20024;-76
2023/05/11 05:49:10;;;;;;;17.85;5.68;;;;;;;;;;5094297;28;20035;-76
2023/05/11 05:51:36;;;;;;;24.38;7.15;;;;;;;;;;5094012;28;20024;-76
2023/05/11 05:54:02;;;;;;;27.92;7.43;;;;;;;;;;5093668;28;20039;-76
2023/05/11 05:56:28;;;;;;;14.98;4.18;;;;;;;;;;5093724;28;20024;-76
2023/05/11 05:58:55;;;;;;;23.30;5.95;;;;;;;;;;5093851;28;20024;-76
2023/05/11 06:01:21;;;;;;;22.95;5.35;;;;;;;;;;5094083;28;20024;-76
2023/05/11 06:03:47;;;;;;;29.15;5.05;;;;;;;;;;5093620;28;20035;-76
2023/05/11 06:06:13;;;;;;;14.98;4.43;;;;;;;;;;5093953;28;20510;-76
2023/05/11 06:08:39;;;;;;;17.85;4.80;;;;;;;;;;5092315;28;20060;-76
2023/05/11 06:11:06;;;;;;;16.48;3.42;;;;;;;;;;5092872;28;20024;-76
2023/05/11 06:13:32;;;;;;;14.13;3.83;;;;;;;;;;5092822;28;20032;-76
2023/05/11 06:15:58;;;;;;;30.15;4.55;;;;;;;;;;5093286;28;20099;-76
2023/05/11 06:18:24;;;;;;;23.92;3.50;;;;;;;;;;5087189;28;20513;-76
2023/05/11 06:20:50;;;;;;;14.63;3.83;;;;;;;;;;5090467;28;20109;-76
2023/05/11 06:23:16;;;;;;;23.15;4.07;;;;;;;;;;5093215;28;20572;-76
2023/05/11 06:25:42;;;;;;;6.32;2.65;;;;;;;;;;5092838;28;20020;-76
2023/05/11 06:28:08;;;;;;;15.38;3.33;;;;;;;;;;5092493;28;20107;-76
2023/05/11 06:30:35;;;;;;;11.95;3.30;;;;;;;;;;5092376;28;20016;-75
2023/05/11 06:33:01;;;;;;;12.23;3.00;;;;;;;;;;5075009;28;20565;-76
2023/05/11 06:35:29;;;;;;;12.45;2.90;;;;;;;;;;5093286;28;20059;-76
2023/05/11 06:37:55;;;;;;;13.02;3.78;;;;;;;;;;5093707;28;20483;-76
2023/05/11 06:40:21;;;;;;;12.60;3.20;;;;;;;;;;5113571;28;20024;-76
2023/05/11 06:42:47;;;;;;;7.97;2.85;;;;;;;;;;5113348;28;20038;-76
2023/05/11 06:45:13;;;;;;;13.82;4.65;;;;;;;;;;5113191;28;20020;-75
2023/05/11 06:47:39;;;;;;;12.75;3.70;;;;;;;;;;5113312;28;20035;-76
2023/05/11 06:50:05;;;;;;;7.78;3.50;;;;;;;;;;5113564;28;20034;-76
2023/05/11 06:52:32;;;;;;;5.97;3.67;;;;;;;;;;5094753;28;20028;-76
2023/05/11 06:54:58;;;;;;;6.07;3.67;;;;;;;;;;5096171;28;20043;-75
2023/05/11 06:57:24;;;;;;;14.23;4.10;;;;;;;;;;5092656;28;20032;-76
2023/05/11 06:59:50;;;;;;;7.28;3.33;;;;;;;;;;5092641;28;20024;-76
2023/05/11 07:02:16;;;;;;;6.72;3.67;;;;;;;;;;5092723;28;21792;-76
2023/05/11 07:04:42;;;;;;;5.45;3.00;;;;;;;;;;5092626;28;20382;-75
2023/05/11 07:07:10;;;;;;;7.00;3.47;;;;;;;;;;5092593;28;20024;-76
2023/05/11 07:09:36;;;;;;;5.93;3.33;;;;;;;;;;5091423;28;20129;-76
2023/05/11 07:12:03;;;;;;;5.63;3.28;;;;;;;;;;5092494;28;20055;-76
2023/05/11 07:14:28;;;;;;;5.90;3.83;;;;;;;;;;5092654;28;20031;-76
2023/05/11 07:16:54;;;;;;;6.45;3.40;;;;;;;;;;5092375;28;20024;-76
2023/05/11 07:19:20;;;;;;;4.97;3.63;;;;;;;;;;5092471;28;20098;-76
2023/05/11 07:21:46;;;;;;;5.13;3.03;;;;;;;;;;5092334;28;20024;-75
2023/05/11 07:24:12;;;;;;;4.78;3.28;;;;;;;;;;5092538;28;20485;-76
2023/05/11 07:26:38;;;;;;;5.30;3.38;;;;;;;;;;5096372;28;20032;-76
2023/05/11 07:29:04;;;;;;;5.65;3.83;;;;;;;;;;5096318;28;20049;-76
2023/05/11 07:31:31;;;;;;;5.65;3.72;;;;;;;;;;5096551;28;20478;-76
2023/05/11 07:33:57;;;;;;;5.00;3.30;;;;;;;;;;5096757;28;20435;-76
2023/05/11 07:36:25;;;;;;;4.40;3.30;;;;;;;;;;5096734;28;20470;-76
2023/05/11 07:38:58;;;;;;;4.95;3.20;;;;;;;;;;5096407;28;20028;-76
2023/05/11 07:41:27;;;;;;;4.18;3.25;;;;;;;;;;5096797;28;20030;-76
2023/05/11 07:43:53;;;;;;;3.53;2.67;;;;;;;;;;5096375;28;20023;-75
2023/05/11 07:46:19;;;;;;;4.18;2.85;;;;;;;;;;5096239;28;20098;-76
2023/05/11 07:48:46;;;;;;;4.22;3.30;;;;;;;;;;5095924;28;20028;-76
2023/05/11 07:51:12;;;;;;;4.22;3.38;;;;;;;;;;5096498;28;20075;-76
2023/05/11 07:53:38;;;;;;;4.82;2.97;;;;;;;;;;5095966;28;20024;-76
2023/05/11 07:56:04;;;;;;;3.63;2.72;;;;;;;;;;5096333;28;20509;-76
2023/05/11 07:58:31;;;;;;;2.95;2.28;;;;;;;;;;5096099;28;20024;-76
2023/05/11 08:00:57;;;;;;;2.75;2.05;;;;;;;;;;5096186;28;20028;-76
2023/05/11 08:03:23;;;;;;;3.78;2.88;;;;;;;;;;5095871;28;20106;-76
2023/05/11 08:05:49;;;;;;;3.92;3.00;;;;;;;;;;5095883;28;20032;-76
2023/05/11 08:08:15;;;;;;;3.58;2.78;;;;;;;;;;5095759;28;20479;-76
2023/05/11 08:10:41;;;;;;;3.72;2.58;;;;;;;;;;5095977;28;20532;-76
2023/05/11 08:13:08;;;;;;;2.97;2.40;;;;;;;;;;5095901;28;20059;-76
2023/05/11 08:15:34;;;;;;;2.70;2.00;;;;;;;;;;5095731;28;20034;-76
2023/05/11 08:18:00;;;;;;;2.97;2.20;;;;;;;;;;5095827;28;20032;-76
2023/05/11 08:20:28;;;;;;;3.25;2.65;;;;;;;;;;5095790;28;20631;-76
2023/05/11 08:22:54;;;;;;;3.85;2.92;;;;;;;;;;5095661;28;20028;-76
2023/05/11 08:25:20;;;;;;;2.80;2.17;;;;;;;;;;5095713;28;20348;-76
2023/05/11 08:27:46;;;;;;;3.72;2.95;;;;;;;;;;5095471;28;20095;-76
2023/05/11 08:30:12;;;;;;;2.80;2.50;;;;;;;;;;5095432;28;20023;-76
2023/05/11 08:32:38;;;;;;;2.90;2.58;;;;;;;;;;5095254;28;20420;-76
2023/05/11 08:35:04;;;;;;;2.50;1.90;;;;;;;;;;5077704;28;20024;-76
2023/05/11 08:37:31;;;;;;;3.03;2.42;;;;;;;;;;5094786;28;20020;-76
2023/05/11 08:39:57;;;;;;;3.08;2.40;;;;;;;;;;5095700;28;20390;-76
2023/05/11 08:42:27;;;;;;;2.65;2.33;;;;;;;;;;5095455;28;20589;-76
2023/05/11 08:44:53;;;;;;;;;;;;;;;;;;5096021;28;20107;-76
2023/05/11 08:47:19;;;;;;;2.55;1.75;;;;;;;;;;5095093;28;20389;-76
2023/05/11 08:49:45;;;;;;;4.88;2.92;;;;;;;;;;5095137;28;20030;-76
2023/05/11 08:52:11;;;;;;;3.60;2.78;;;;;;;;;;5094891;28;20020;-76
2023/05/11 08:54:38;;;;;;;4.30;3.13;;;;;;;;;;5094763;28;20051;-76
2023/05/11 08:57:05;;;;;;;3.83;2.97;;;;;;;;;;5094927;28;20024;-76
2023/05/11 08:59:33;;;;;;;4.95;3.35;;;;;;;;;;5095057;28;20477;-76
2023/05/11 09:01:59;;;;;;;4.28;3.20;;;;;;;;;;5095104;28;20028;-76
2023/05/11 09:04:26;;;;;;;3.80;2.92;;;;;;;;;;5094457;28;20020;-76
2023/05/11 09:06:54;;;;;;;3.67;2.92;;;;;;;;;;5094816;28;20386;-76
2023/05/11 09:09:20;;;;;;;2.75;2.35;;;;;;;;;;5093843;28;20086;-76
2023/05/11 09:11:46;;;;;;;4.22;2.63;;;;;;;;;;5094623;28;20024;-76
2023/05/11 09:14:12;;;;;;;4.10;2.88;;;;;;;;;;5094285;28;20038;-76
2023/05/11 09:16:38;;;;;;;4.07;3.05;;;;;;;;;;5094476;28;20051;-76
2023/05/11 09:19:05;;;;;;;4.10;2.80;;;;;;;;;;5094310;28;20024;-76
2023/05/11 09:21:31;;;;;;;3.83;3.13;;;;;;;;;;5094624;28;20024;-76
2023/05/11 09:24:00;;;;;;;5.57;4.00;;;;;;;;;;5094279;28;20081;-76
2023/05/11 09:26:30;;;;;;;4.68;3.80;;;;;;;;;;5094271;28;20052;-76
2023/05/11 09:28:57;;;;;;;5.15;3.80;;;;;;;;;;5094553;28;20390;-76
2023/05/11 09:31:35;;;;;;;5.93;3.30;;;;;;;;;;5094280;28;20095;-76
2023/05/11 09:34:14;;;;;;;5.35;4.20;;;;;;;;;;5094240;28;20030;-76
2023/05/11 09:36:41;;;;;;;4.78;3.67;;;;;;;;;;5094471;28;20028;-76
2023/05/11 09:39:07;;;;;;;6.03;4.30;;;;;;;;;;5094125;28;20021;-76
2023/05/11 09:41:34;;;;;;;5.72;4.25;;;;;;;;;;5094298;28;20055;-76
2023/05/11 09:44:07;;;;;;;8.45;5.68;;;;;;;;;;5093976;28;20035;-76
2023/05/11 09:46:35;;;;;;;8.75;5.47;;;;;;;;;;5094088;28;20062;-76
2023/05/11 09:49:02;;;;;;;6.25;4.78;;;;;;;;;;5074577;28;20547;-76
2023/05/11 09:51:31;;;;;;;9.23;5.25;;;;;;;;;;5093740;28;20012;-76
2023/05/11 09:53:58;;;;;;;8.63;5.13;;;;;;;;;;5093510;28;20020;-76
2023/05/11 09:56:42;;;;;;;8.52;5.53;;;;;;;;;;5093757;28;20085;-76
2023/05/11 09:59:08;;;;;;;8.35;5.50;;;;;;;;;;5093610;28;20021;-76
2023/05/11 10:01:36;;;;;;;8.20;5.63;;;;;;;;;;5092670;28;20028;-76
2023/05/11 10:04:02;;;;;;;8.18;5.78;;;;;;;;;;5093581;28;20558;-76
2023/05/11 10:06:42;;;;;;;9.63;5.55;;;;;;;;;;5093623;28;20366;-76
2023/05/11 10:09:09;;;;;;;7.95;5.57;;;;;;;;;;5073370;28;20052;-76
2023/05/11 10:11:36;;;;;;;8.38;4.93;;;;;;;;;;5073141;28;20355;-76
2023/05/11 10:14:02;;;;;;;9.63;6.47;;;;;;;;;;5073157;28;20029;-76
2023/05/11 10:16:29;;;;;;;8.63;5.68;;;;;;;;;;5083930;28;20032;-76
2023/05/11 10:18:56;;;;;;;8.90;5.95;;;;;;;;;;5093388;28;20662;-76
2023/05/11 10:21:22;;;;;;;9.35;5.85;;;;;;;;;;5093272;28;20081;-76
2023/05/11 10:23:49;;;;;;;10.57;6.50;;;;;;;;;;5093147;28;20031;-76
2023/05/11 10:26:15;;;;;;;11.27;6.55;;;;;;;;;;5093111;28;20099;-76
2023/05/11 10:28:41;;;;;;;10.52;6.95;;;;;;;;;;5093183;28;20436;-76
2023/05/11 10:31:08;;;;;;;10.60;6.30;;;;;;;;;;5093445;28;20031;-76
2023/05/11 10:33:34;;;;;;;11.32;5.68;;;;;;;;;;5093017;28;20055;-76
2023/05/11 10:36:02;;;;;;;9.00;5.45;;;;;;;;;;5093126;28;20505;-76
2023/05/11 10:38:28;;;;;;;9.07;6.15;;;;;;;;;;5093057;28;20363;-76
2023/05/11 10:40:58;;;;;;;7.95;5.00;;;;;;;;;;5093020;28;20518;-76
2023/05/11 10:43:28;;;;;;;16.13;11.52;;;;;;;;;;5093514;28;20089;-76
2023/05/11 10:46:04;;;;;;;8.23;5.13;;;;;;;;;;5093092;28;20086;-76
2023/05/11 10:48:32;;;;;;;7.72;5.20;;;;;;;;;;5092987;28;20028;-76
2023/05/11 10:51:11;;;;;;;8.35;5.53;;;;;;;;;;5092846;28;20498;-76
2023/05/11 10:53:55;;;;;;;7.80;5.25;;;;;;;;;;5092676;28;20077;-76
2023/05/11 10:56:30;;;;;;;8.27;5.32;;;;;;;;;;5092968;28;20028;-76
2023/05/11 10:58:56;;;;;;;7.38;5.53;;;;;;;;;;5093081;28;20347;-77
2023/05/11 11:01:41;;;;;;;7.35;5.07;;;;;;;;;;5092562;28;20107;-77
2023/05/11 11:04:08;;;;;;;7.55;4.97;;;;;;;;;;5093015;28;20024;-77
2023/05/11 11:06:37;;;;;;;5.93;4.50;;;;;;;;;;5092956;28;20054;-77
2023/05/11 11:09:06;;;;;;;6.17;4.40;;;;;;;;;;5092750;28;20055;-77
2023/05/11 11:11:37;;;;;;;4.40;3.53;;;;;;;;;;5093143;28;20020;-77
2023/05/11 11:14:04;;;;;;;4.68;3.63;;;;;;;;;;5074572;28;20024;-77
2023/05/11 11:16:31;;;;;;;5.72;3.70;;;;;;;;;;5092731;28;20024;-77
2023/05/11 11:19:16;;;;;;;5.00;3.55;;;;;;;;;;5092649;28;20020;-77
2023/05/11 11:21:43;;;;;;;5.20;4.07;;;;;;;;;;5092630;28;20035;-77
2023/05/11 11:24:08;;;;;;;4.80;3.20;;;;;;;;;;5092908;28;20396;-76
2023/05/11 11:26:48;;;;;;;4.43;3.97;;;;;;;;;;5092890;28;20021;-76
2023/05/11 11:29:14;;;;;;;4.80;3.15;;;;;;;;;;5092899;28;20074;-76
2023/05/11 11:31:40;;;;;;;3.25;2.83;;;;;;;;;;5075632;28;20032;-76
2023/05/11 11:34:25;;;;;;;4.22;3.53;;;;;;;;;;5088541;28;20032;-76
2023/05/11 11:36:54;;;;;;;4.68;3.88;;;;;;;;;;5092152;28;20047;-76
2023/05/11 11:39:25;;;;;;;3.30;2.92;;;;;;;;;;5092151;28;20055;-76
2023/05/11 11:42:01;;;;;;;3.45;2.88;;;;;;;;;;5093043;28;20016;-76
2023/05/11 11:44:27;;;;;;;5.63;3.40;;;;;;;;;;5093392;28;20020;-77
2023/05/11 11:47:15;;;;;;;4.45;3.67;;;;;;;;;;5093237;28;20016;-77
2023/05/11 11:49:54;;;;;;;3.38;2.78;;;;;;;;;;5093469;28;20024;-77
2023/05/11 11:52:26;;;;;;;3.50;3.20;;;;;;;;;;5093063;28;20039;-77
2023/05/11 11:54:52;;;;;;;4.05;3.60;;;;;;;;;;5093333;28;20069;-77
2023/05/11 11:57:34;;;;;;;3.50;3.20;;;;;;;;;;5093396;28;20016;-77
2023/05/11 12:00:09;;;;;;;3.92;3.22;;;;;;;;;;5093204;28;20378;-77
2023/05/11 12:02:39;;;;;;;4.47;3.80;;;;;;;;;;5093598;28;20414;-77
2023/05/11 12:05:05;;;;;;;;;;;;;;;;;;5093428;28;20055;-77
2023/05/11 12:07:32;;;;;;;3.70;2.97;;;;;;;;;;5093766;28;19911;-77
2023/05/11 12:10:02;;;;;;;3.45;3.08;;;;;;;;;;5093487;28;20075;-77
2023/05/11 12:12:29;;;;;;;4.00;3.60;;;;;;;;;;5094408;28;20433;-77
2023/05/11 12:14:56;;;;;;;4.28;3.55;;;;;;;;;;5096833;28;20031;-77
2023/05/11 12:17:24;;;;;;;4.55;3.80;;;;;;;;;;5097392;28;20048;-77
2023/05/11 12:19:51;;;;;;;4.60;3.67;;;;;;;;;;5095939;28;20081;-78
2023/05/11 12:22:23;;;;;;;3.17;2.72;;;;;;;;;;5099520;28;20051;-77
2023/05/11 12:24:50;;;;;;;3.97;3.40;;;;;;;;;;5096743;28;20097;-77
2023/05/11 12:27:18;;;;;;;3.90;3.50;;;;;;;;;;5096962;28;20016;-77
2023/05/11 12:29:48;;;;;;;3.75;3.22;;;;;;;;;;5096571;28;20055;-77
2023/05/11 12:32:14;;;;;;;4.75;3.80;;;;;;;;;;5078133;28;20395;-77
2023/05/11 12:34:40;;;;;;;4.20;3.80;;;;;;;;;;5096518;28;20028;-77
2023/05/11 12:37:07;;;;;;;4.18;3.42;;;;;;;;;;5096319;28;20039;-77
2023/05/11 12:39:34;;;;;;;4.07;3.67;;;;;;;;;;5078139;28;20020;-77
2023/05/11 12:42:00;;;;;;;4.18;3.83;;;;;;;;;;5096607;28;20028;-77
2023/05/11 12:44:27;;;;;;;4.57;3.30;;;;;;;;;;5095855;28;20639;-77
2023/05/11 12:46:53;;;;;;;4.22;3.83;;;;;;;;;;5096288;28;20031;-77
2023/05/11 12:49:19;;;;;;;5.32;3.92;;;;;;;;;;5096130;28;20077;-77
2023/05/11 12:51:49;;;;;;;4.30;3.90;;;;;;;;;;5098139;28;20020;-77
2023/05/11 12:54:32;;;;;;;4.25;3.85;;;;;;;;;;5095591;28;20024;-77
2023/05/11 12:56:58;;;;;;;4.00;3.60;;;;;;;;;;5096020;28;20020;-77
2023/05/11 12:59:38;;;;;;;3.88;3.58;;;;;;;;;;5095669;28;20020;-77
2023/05/11 13:02:12;;;;;;;3.20;2.90;;;;;;;;;;5075710;28;20103;-77
2023/05/11 13:04:48;;;;;;;3.10;2.85;;;;;;;;;;5075808;28;20025;-77
2023/05/11 13:07:26;;;;;;;3.63;3.00;;;;;;;;;;5076118;28;20403;-78
2023/05/11 13:09:59;;;;;;;4.75;4.35;;;;;;;;;;5092648;28;20048;-78
2023/05/11 13:12:25;;;;;;;6.03;5.43;;;;;;;;;;5095977;28;20032;-78
2023/05/11 13:15:04;;;;;;;6.20;5.00;;;;;;;;;;5095661;28;20108;-77
2023/05/11 13:17:35;;;;;;;5.50;5.00;;;;;;;;;;5095468;28;20482;-78
2023/05/11 13:20:14;;;;;;;6.93;4.55;;;;;;;;;;5077485;28;20480;-78
2023/05/11 13:22:40;;;;;;;4.80;4.40;;;;;;;;;;5095889;28;20036;-78
2023/05/11 13:25:08;;;;;;;4.13;3.72;;;;;;;;;;5097077;28;20028;-78
2023/05/11 13:27:34;;;;;;;5.13;4.57;;;;;;;;;;5095707;28;20069;-78
2023/05/11 13:30:00;;;;;;;5.45;4.47;;;;;;;;;;5095102;28;20072;-78
2023/05/11 13:32:25;;;;;;;6.20;4.63;;;;;;;;;;5095270;28;20106;-78
2023/05/11 13:34:51;;;;;;;6.05;5.38;;;;;;;;;;5077306;28;20402;-77
2023/05/11 13:37:17;;;;;;;5.72;5.22;;;;;;;;;;5095087;28;20031;-78
2023/05/11 13:39:43;;;;;;;4.05;3.65;;;;;;;;;;5096113;28;20024;-79
2023/05/11 13:42:09;;;;;;;4.93;4.25;;;;;;;;;;5097533;28;20028;-79
2023/05/11 13:44:35;;;;;;;5.35;4.78;;;;;;;;;;5096069;28;20117;-78
2023/05/11 13:47:01;;;;;;;6.28;5.03;;;;;;;;;;5094799;28;20042;-78
2023/05/11 13:49:28;;;;;;;5.60;3.95;;;;;;;;;;5096849;28;20032;-78
2023/05/11 13:51:54;;;;;;;5.95;5.43;;;;;;;;;;5111407;28;20497;-78
2023/05/11 13:54:20;;;;;;;6.03;4.88;;;;;;;;;;5116301;28;20028;-78
2023/05/11 13:56:47;;;;;;;5.10;3.80;;;;;;;;;;5116348;28;20055;-78
2023/05/11 13:59:13;;;;;;;4.85;3.45;;;;;;;;;;5102303;28;20051;-78
2023/05/11 14:01:39;;;;;;;3.47;2.90;;;;;;;;;;5096277;28;20031;-78
2023/05/11 14:04:05;;;;;;;5.60;3.47;;;;;;;;;;5096808;28;20028;-79
2023/05/11 14:06:32;;;;;;;4.03;3.47;;;;;;;;;;5078290;28;20084;-78
2023/05/11 14:08:58;;;;;;;4.43;3.58;;;;;;;;;;5094342;28;20052;-78
2023/05/11 14:11:24;;;;;;;5.07;3.03;;;;;;;;;;5095578;28;20031;-76
2023/05/11 14:13:51;;;;;;;4.75;2.40;;;;;;;;;;5094005;28;20032;-76
2023/05/11 14:16:18;;;;;;;3.63;2.33;;;;;;;;;;5093945;28;20458;-76
2023/05/11 14:18:44;;;;;;;2.13;1.90;;;;;;;;;;5094141;28;20047;-76
2023/05/11 14:21:11;;;;;;;3.30;1.70;;;;;;;;;;5093688;28;20462;-77
2023/05/11 14:23:37;;;;;;;2.53;2.20;;;;;;;;;;5093738;28;20032;-76
2023/05/11 14:26:03;;;;;;;4.35;3.20;;;;;;;;;;5093803;28;20028;-76
2023/05/11 14:28:30;;;;;;;1.90;1.73;;;;;;;;;;5094105;28;20506;-77
2023/05/11 14:31:19;;;;;;;3.95;2.08;;;;;;;;;;5093785;28;20012;-77
2023/05/11 14:33:52;;;;;;;2.92;2.35;;;;;;;;;;5094004;28;20039;-77
2023/05/11 14:36:18;;;;;;;2.55;2.20;;;;;;;;;;5093517;28;20474;-77
2023/05/11 14:38:45;;;;;;;3.20;2.85;;;;;;;;;;5093667;28;20027;-76
2023/05/11 14:41:11;;;;;;;3.65;3.10;;;;;;;;;;5093670;28;20030;-76